sensor_id;sensor_type;location;lat;lon;timestamp;temperature;humidity
7762;DHT22;3925;48.636;9.516;2023-04-16T00:01:26;9.20;99.90
7762;DHT22;3925;48.636;9.516;2023-04-16T00:03:53;9.10;99.90
7762;DHT22;3925;48.636;9.516;2023-04-16T00:06:21;9.10;99.90
7762;DHT22;3925;48.636;9.516;2023-04-16T00:08:48;9.10;99.90
7762;DHT22;3925;48.636;9.516;2023-04-16T00:11:17;9.10;99.90
7762;DHT22;3925;48.636;9.516;2023-04-16T00:13:44;9.20;99.90
7762;DHT22;3925;48.636;9.516;2023-04-16T00:16:11;9.20;99.90
7762;DHT22;3925;48.636;9.516;2023-04-16T00:18:37;9.20;99.90
7762;DHT22;3925;48.636;9.516;2023-04-16T00:21:05;9.10;99.90
7762;DHT22;3925;48.636;9.516;2023-04-16T00:23:32;9.10;99.90
7762;DHT22;3925;48.636;9.516;2023-04-16T00:25:59;9.10;99.90
7762;DHT22;3925;48.636;9.516;2023-04-16T00:28:27;9.00;99.90
7762;DHT22;3925;48.636;9.516;2023-04-16T00:30:54;9.00;99.90
7762;DHT22;3925;48.636;9.516;2023-04-16T00:33:23;9.00;99.90
7762;DHT22;3925;48.636;9.516;2023-04-16T00:35:50;9.00;99.90
7762;DHT22;3925;48.636;9.516;2023-04-16T00:38:17;9.00;99.90
7762;DHT22;3925;48.636;9.516;2023-04-16T00:40:44;9.00;99.90
7762;DHT22;3925;48.636;9.516;2023-04-16T00:43:10;9.00;99.90
7762;DHT22;3925;48.636;9.516;2023-04-16T00:45:39;9.00;99.90
7762;DHT22;3925;48.636;9.516;2023-04-16T00:48:05;9.00;99.90
7762;DHT22;3925;48.636;9.516;2023-04-16T00:50:32;9.00;99.90
7762;DHT22;3925;48.636;9.516;2023-04-16T00:53:00;9.10;99.90
7762;DHT22;3925;48.636;9.516;2023-04-16T00:55:28;9.10;99.90
7762;DHT22;3925;48.636;9.516;2023-04-16T00:57:55;9.10;99.90
7762;DHT22;3925;48.636;9.516;2023-04-16T01:00:22;9.10;99.90
7762;DHT22;3925;48.636;9.516;2023-04-16T01:02:52;9.00;99.90
7762;DHT22;3925;48.636;9.516;2023-04-16T01:05:19;9.00;99.90
7762;DHT22;3925;48.636;9.516;2023-04-16T01:07:46;9.00;99.90
7762;DHT22;3925;48.636;9.516;2023-04-16T01:10:13;8.80;99.90
7762;DHT22;3925;48.636;9.516;2023-04-16T01:12:39;8.80;99.90
7762;DHT22;3925;48.636;9.516;2023-04-16T01:15:07;8.80;99.90
7762;DHT22;3925;48.636;9.516;2023-04-16T01:17:35;8.90;99.90
7762;DHT22;3925;48.636;9.516;2023-04-16T01:20:04;8.90;99.90
7762;DHT22;3925;48.636;9.516;2023-04-16T01:22:33;8.90;99.90
7762;DHT22;3925;48.636;9.516;2023-04-16T01:25:00;8.90;99.90
7762;DHT22;3925;48.636;9.516;2023-04-16T01:27:26;8.90;99.90
7762;DHT22;3925;48.636;9.516;2023-04-16T01:29:53;8.90;99.90
7762;DHT22;3925;48.636;9.516;2023-04-16T01:32:20;8.90;99.90
7762;DHT22;3925;48.636;9.516;2023-04-16T01:34:47;8.80;99.90
7762;DHT22;3925;48.636;9.516;2023-04-16T01:37:14;8.80;99.90
7762;DHT22;3925;48.636;9.516;2023-04-16T01:39:42;8.80;99.90
7762;DHT22;3925;48.636;9.516;2023-04-16T01:42:09;8.80;99.90
7762;DHT22;3925;48.636;9.516;2023-04-16T01:44:36;8.90;99.90
7762;DHT22;3925;48.636;9.516;2023-04-16T01:47:03;8.90;99.90
7762;DHT22;3925;48.636;9.516;2023-04-16T01:49:30;8.90;99.90
7762;DHT22;3925;48.636;9.516;2023-04-16T01:51:56;8.90;99.90
7762;DHT22;3925;48.636;9.516;2023-04-16T01:54:23;8.80;99.90
7762;DHT22;3925;48.636;9.516;2023-04-16T01:56:51;8.90;99.90
7762;DHT22;3925;48.636;9.516;2023-04-16T01:59:18;8.90;99.90
7762;DHT22;3925;48.636;9.516;2023-04-16T02:01:45;8.90;99.90
7762;DHT22;3925;48.636;9.516;2023-04-16T02:04:12;8.80;99.90
7762;DHT22;3925;48.636;9.516;2023-04-16T02:06:39;8.80;99.90
7762;DHT22;3925;48.636;9.516;2023-04-16T02:09:06;8.80;99.90
7762;DHT22;3925;48.636;9.516;2023-04-16T02:11:33;8.80;99.90
7762;DHT22;3925;48.636;9.516;2023-04-16T02:14:01;8.70;99.90
7762;DHT22;3925;48.636;9.516;2023-04-16T02:16:28;8.80;99.90
7762;DHT22;3925;48.636;9.516;2023-04-16T02:18:55;8.70;99.90
7762;DHT22;3925;48.636;9.516;2023-04-16T02:21:21;8.60;99.90
7762;DHT22;3925;48.636;9.516;2023-04-16T02:23:48;8.70;99.90
7762;DHT22;3925;48.636;9.516;2023-04-16T02:26:16;8.80;99.90
7762;DHT22;3925;48.636;9.516;2023-04-16T02:28:42;8.90;99.90
7762;DHT22;3925;48.636;9.516;2023-04-16T02:31:11;8.80;99.90
7762;DHT22;3925;48.636;9.516;2023-04-16T02:33:37;8.70;99.90
7762;DHT22;3925;48.636;9.516;2023-04-16T02:36:05;8.80;99.90
7762;DHT22;3925;48.636;9.516;2023-04-16T02:38:32;8.70;99.90
7762;DHT22;3925;48.636;9.516;2023-04-16T02:41:01;8.70;99.90
7762;DHT22;3925;48.636;9.516;2023-04-16T02:43:28;8.70;99.90
7762;DHT22;3925;48.636;9.516;2023-04-16T02:45:55;8.70;99.90
7762;DHT22;3925;48.636;9.516;2023-04-16T02:48:25;8.80;99.90
7762;DHT22;3925;48.636;9.516;2023-04-16T02:50:51;8.80;99.90
7762;DHT22;3925;48.636;9.516;2023-04-16T02:53:18;8.80;99.90
7762;DHT22;3925;48.636;9.516;2023-04-16T02:55:49;8.80;99.90
7762;DHT22;3925;48.636;9.516;2023-04-16T02:58:17;8.80;99.90
7762;DHT22;3925;48.636;9.516;2023-04-16T03:00:44;8.90;99.90
7762;DHT22;3925;48.636;9.516;2023-04-16T03:03:10;8.80;99.90
7762;DHT22;3925;48.636;9.516;2023-04-16T03:05:39;8.70;99.90
7762;DHT22;3925;48.636;9.516;2023-04-16T03:08:06;8.70;99.90
7762;DHT22;3925;48.636;9.516;2023-04-16T03:10:32;8.70;99.90
7762;DHT22;3925;48.636;9.516;2023-04-16T03:13:00;8.80;99.90
7762;DHT22;3925;48.636;9.516;2023-04-16T03:15:27;8.80;99.90
7762;DHT22;3925;48.636;9.516;2023-04-16T03:17:55;8.80;99.90
7762;DHT22;3925;48.636;9.516;2023-04-16T03:20:22;8.80;99.90
7762;DHT22;3925;48.636;9.516;2023-04-16T03:22:50;8.80;99.90
7762;DHT22;3925;48.636;9.516;2023-04-16T03:25:17;8.80;99.90
7762;DHT22;3925;48.636;9.516;2023-04-16T03:27:44;8.80;99.90
7762;DHT22;3925;48.636;9.516;2023-04-16T03:30:11;8.80;99.90
7762;DHT22;3925;48.636;9.516;2023-04-16T03:32:39;8.80;99.90
7762;DHT22;3925;48.636;9.516;2023-04-16T03:35:07;8.80;99.90
7762;DHT22;3925;48.636;9.516;2023-04-16T03:37:34;8.80;99.90
7762;DHT22;3925;48.636;9.516;2023-04-16T03:40:03;8.80;99.90
7762;DHT22;3925;48.636;9.516;2023-04-16T03:42:31;8.90;99.90
7762;DHT22;3925;48.636;9.516;2023-04-16T03:44:58;8.90;99.90
7762;DHT22;3925;48.636;9.516;2023-04-16T03:47:25;8.90;99.90
7762;DHT22;3925;48.636;9.516;2023-04-16T03:49:52;8.90;99.90
7762;DHT22;3925;48.636;9.516;2023-04-16T03:52:18;8.80;99.90
7762;DHT22;3925;48.636;9.516;2023-04-16T03:54:45;8.80;99.90
7762;DHT22;3925;48.636;9.516;2023-04-16T03:57:13;8.80;99.90
7762;DHT22;3925;48.636;9.516;2023-04-16T03:59:40;8.80;99.90
7762;DHT22;3925;48.636;9.516;2023-04-16T04:02:07;8.90;99.90
7762;DHT22;3925;48.636;9.516;2023-04-16T04:04:34;8.90;99.90
7762;DHT22;3925;48.636;9.516;2023-04-16T04:07:00;8.90;99.90
7762;DHT22;3925;48.636;9.516;2023-04-16T04:09:28;8.80;99.90
7762;DHT22;3925;48.636;9.516;2023-04-16T04:11:55;8.80;99.90
7762;DHT22;3925;48.636;9.516;2023-04-16T04:14:24;8.90;99.90
7762;DHT22;3925;48.636;9.516;2023-04-16T04:16:51;8.90;99.90
7762;DHT22;3925;48.636;9.516;2023-04-16T04:19:18;8.90;99.90
7762;DHT22;3925;48.636;9.516;2023-04-16T04:21:45;8.90;99.90
7762;DHT22;3925;48.636;9.516;2023-04-16T04:24:12;8.90;99.90
7762;DHT22;3925;48.636;9.516;2023-04-16T04:26:38;9.00;99.90
7762;DHT22;3925;48.636;9.516;2023-04-16T04:29:05;8.90;99.90
7762;DHT22;3925;48.636;9.516;2023-04-16T04:31:34;8.90;99.90
7762;DHT22;3925;48.636;9.516;2023-04-16T04:34:00;8.90;99.90
7762;DHT22;3925;48.636;9.516;2023-04-16T04:36:27;8.90;99.90
7762;DHT22;3925;48.636;9.516;2023-04-16T04:38:54;8.90;99.90
7762;DHT22;3925;48.636;9.516;2023-04-16T04:41:21;8.90;99.90
7762;DHT22;3925;48.636;9.516;2023-04-16T04:43:48;8.90;99.90
7762;DHT22;3925;48.636;9.516;2023-04-16T04:46:14;8.90;99.90
7762;DHT22;3925;48.636;9.516;2023-04-16T04:48:43;8.90;99.90
7762;DHT22;3925;48.636;9.516;2023-04-16T04:51:09;8.80;99.90
7762;DHT22;3925;48.636;9.516;2023-04-16T04:53:36;8.80;99.90
7762;DHT22;3925;48.636;9.516;2023-04-16T04:56:04;8.90;99.90
7762;DHT22;3925;48.636;9.516;2023-04-16T04:58:31;8.80;99.90
7762;DHT22;3925;48.636;9.516;2023-04-16T05:00:57;8.80;99.90
7762;DHT22;3925;48.636;9.516;2023-04-16T05:03:25;8.80;99.90
7762;DHT22;3925;48.636;9.516;2023-04-16T05:05:53;8.90;99.90
7762;DHT22;3925;48.636;9.516;2023-04-16T05:08:20;9.00;99.90
7762;DHT22;3925;48.636;9.516;2023-04-16T05:10:46;8.90;99.90
7762;DHT22;3925;48.636;9.516;2023-04-16T05:13:13;9.00;99.90
7762;DHT22;3925;48.636;9.516;2023-04-16T05:15:40;9.00;99.90
7762;DHT22;3925;48.636;9.516;2023-04-16T05:18:07;8.90;99.90
7762;DHT22;3925;48.636;9.516;2023-04-16T05:20:34;9.00;99.90
7762;DHT22;3925;48.636;9.516;2023-04-16T05:23:03;9.00;99.90
7762;DHT22;3925;48.636;9.516;2023-04-16T05:25:30;9.00;99.90
7762;DHT22;3925;48.636;9.516;2023-04-16T05:27:57;9.00;99.90
7762;DHT22;3925;48.636;9.516;2023-04-16T05:30:24;8.90;99.90
7762;DHT22;3925;48.636;9.516;2023-04-16T05:32:51;8.90;99.90
7762;DHT22;3925;48.636;9.516;2023-04-16T05:35:17;8.90;99.90
7762;DHT22;3925;48.636;9.516;2023-04-16T05:37:44;8.90;99.90
7762;DHT22;3925;48.636;9.516;2023-04-16T05:40:13;9.00;99.90
7762;DHT22;3925;48.636;9.516;2023-04-16T05:42:40;9.00;99.90
7762;DHT22;3925;48.636;9.516;2023-04-16T05:45:07;9.00;99.90
7762;DHT22;3925;48.636;9.516;2023-04-16T05:47:35;8.90;99.90
7762;DHT22;3925;48.636;9.516;2023-04-16T05:50:02;8.90;99.90
7762;DHT22;3925;48.636;9.516;2023-04-16T05:52:28;9.00;99.90
7762;DHT22;3925;48.636;9.516;2023-04-16T05:54:55;9.00;99.90
7762;DHT22;3925;48.636;9.516;2023-04-16T05:57:27;9.00;99.90
7762;DHT22;3925;48.636;9.516;2023-04-16T05:59:54;9.10;99.90
7762;DHT22;3925;48.636;9.516;2023-04-16T06:02:20;9.00;99.90
7762;DHT22;3925;48.636;9.516;2023-04-16T06:04:47;9.00;99.90
7762;DHT22;3925;48.636;9.516;2023-04-16T06:07:14;9.00;99.90
7762;DHT22;3925;48.636;9.516;2023-04-16T06:09:41;9.10;99.90
7762;DHT22;3925;48.636;9.516;2023-04-16T06:12:08;9.20;99.90
7762;DHT22;3925;48.636;9.516;2023-04-16T06:14:36;9.10;99.90
7762;DHT22;3925;48.636;9.516;2023-04-16T06:17:03;9.10;99.90
7762;DHT22;3925;48.636;9.516;2023-04-16T06:19:30;9.10;99.90
7762;DHT22;3925;48.636;9.516;2023-04-16T06:21:57;9.20;99.90
7762;DHT22;3925;48.636;9.516;2023-04-16T06:24:24;9.00;99.90
7762;DHT22;3925;48.636;9.516;2023-04-16T06:26:50;9.00;99.90
7762;DHT22;3925;48.636;9.516;2023-04-16T06:29:18;9.00;99.90
7762;DHT22;3925;48.636;9.516;2023-04-16T06:31:47;9.00;99.90
7762;DHT22;3925;48.636;9.516;2023-04-16T06:34:14;9.10;99.90
7762;DHT22;3925;48.636;9.516;2023-04-16T06:36:41;9.10;99.90
7762;DHT22;3925;48.636;9.516;2023-04-16T06:39:08;9.10;99.90
7762;DHT22;3925;48.636;9.516;2023-04-16T06:41:35;9.10;99.90
7762;DHT22;3925;48.636;9.516;2023-04-16T06:44:02;9.20;99.90
7762;DHT22;3925;48.636;9.516;2023-04-16T06:46:28;9.20;99.90
7762;DHT22;3925;48.636;9.516;2023-04-16T06:48:57;9.20;99.90
7762;DHT22;3925;48.636;9.516;2023-04-16T06:51:23;9.20;99.90
7762;DHT22;3925;48.636;9.516;2023-04-16T06:53:51;9.20;99.90
7762;DHT22;3925;48.636;9.516;2023-04-16T06:56:18;9.10;99.90
7762;DHT22;3925;48.636;9.516;2023-04-16T06:58:44;9.00;99.90
7762;DHT22;3925;48.636;9.516;2023-04-16T07:01:11;9.00;99.90
7762;DHT22;3925;48.636;9.516;2023-04-16T07:03:38;9.00;99.90
7762;DHT22;3925;48.636;9.516;2023-04-16T07:06:06;9.10;99.90
7762;DHT22;3925;48.636;9.516;2023-04-16T07:08:33;9.10;99.90
7762;DHT22;3925;48.636;9.516;2023-04-16T07:11:00;9.10;99.90
7762;DHT22;3925;48.636;9.516;2023-04-16T07:13:27;9.10;99.90
7762;DHT22;3925;48.636;9.516;2023-04-16T07:15:54;9.20;99.90
7762;DHT22;3925;48.636;9.516;2023-04-16T07:18:21;9.10;99.90
7762;DHT22;3925;48.636;9.516;2023-04-16T07:20:48;9.00;99.90
7762;DHT22;3925;48.636;9.516;2023-04-16T07:23:16;9.00;99.90
7762;DHT22;3925;48.636;9.516;2023-04-16T07:25:43;9.00;99.90
7762;DHT22;3925;48.636;9.516;2023-04-16T07:28:10;9.10;99.90
7762;DHT22;3925;48.636;9.516;2023-04-16T07:30:37;9.20;99.90
7762;DHT22;3925;48.636;9.516;2023-04-16T07:33:04;9.10;99.90
7762;DHT22;3925;48.636;9.516;2023-04-16T07:35:31;9.10;99.90
7762;DHT22;3925;48.636;9.516;2023-04-16T07:37:58;9.10;99.90
7762;DHT22;3925;48.636;9.516;2023-04-16T07:40:26;9.10;99.90
7762;DHT22;3925;48.636;9.516;2023-04-16T07:42:53;9.00;99.90
7762;DHT22;3925;48.636;9.516;2023-04-16T07:45:22;9.10;99.90
7762;DHT22;3925;48.636;9.516;2023-04-16T07:47:49;9.10;99.90
7762;DHT22;3925;48.636;9.516;2023-04-16T07:50:16;9.20;99.90
7762;DHT22;3925;48.636;9.516;2023-04-16T07:52:44;9.10;99.90
7762;DHT22;3925;48.636;9.516;2023-04-16T07:55:10;9.20;99.90
7762;DHT22;3925;48.636;9.516;2023-04-16T07:57:39;9.20;99.90
7762;DHT22;3925;48.636;9.516;2023-04-16T08:00:07;9.20;99.90
7762;DHT22;3925;48.636;9.516;2023-04-16T08:02:34;9.20;99.90
7762;DHT22;3925;48.636;9.516;2023-04-16T08:05:01;9.30;99.90
7762;DHT22;3925;48.636;9.516;2023-04-16T08:07:28;9.20;99.90
7762;DHT22;3925;48.636;9.516;2023-04-16T08:09:55;9.30;99.90
7762;DHT22;3925;48.636;9.516;2023-04-16T08:12:21;9.30;99.90
7762;DHT22;3925;48.636;9.516;2023-04-16T08:14:50;9.40;99.90
7762;DHT22;3925;48.636;9.516;2023-04-16T08:17:17;9.30;99.90
7762;DHT22;3925;48.636;9.516;2023-04-16T08:19:44;9.40;99.90
7762;DHT22;3925;48.636;9.516;2023-04-16T08:22:11;9.30;99.90
7762;DHT22;3925;48.636;9.516;2023-04-16T08:24:37;9.20;99.90
7762;DHT22;3925;48.636;9.516;2023-04-16T08:27:04;9.30;99.90
7762;DHT22;3925;48.636;9.516;2023-04-16T08:29:31;9.40;99.90
7762;DHT22;3925;48.636;9.516;2023-04-16T08:32:00;9.40;99.90
7762;DHT22;3925;48.636;9.516;2023-04-16T08:34:26;9.40;99.90
7762;DHT22;3925;48.636;9.516;2023-04-16T08:36:53;9.40;99.90
7762;DHT22;3925;48.636;9.516;2023-04-16T08:39:20;9.50;99.90
7762;DHT22;3925;48.636;9.516;2023-04-16T08:41:47;9.60;99.90
7762;DHT22;3925;48.636;9.516;2023-04-16T08:44:19;9.70;99.90
7762;DHT22;3925;48.636;9.516;2023-04-16T08:46:47;9.50;99.90
7762;DHT22;3925;48.636;9.516;2023-04-16T08:49:16;9.60;99.90
7762;DHT22;3925;48.636;9.516;2023-04-16T08:51:49;9.60;99.90
7762;DHT22;3925;48.636;9.516;2023-04-16T08:54:24;9.70;99.90
7762;DHT22;3925;48.636;9.516;2023-04-16T08:56:54;9.70;99.90
7762;DHT22;3925;48.636;9.516;2023-04-16T08:59:24;9.70;99.90
7762;DHT22;3925;48.636;9.516;2023-04-16T09:01:51;9.80;99.90
7762;DHT22;3925;48.636;9.516;2023-04-16T09:04:20;9.90;99.90
7762;DHT22;3925;48.636;9.516;2023-04-16T09:06:47;9.90;99.90
7762;DHT22;3925;48.636;9.516;2023-04-16T09:09:15;9.90;99.90
7762;DHT22;3925;48.636;9.516;2023-04-16T09:11:43;10.00;99.90
7762;DHT22;3925;48.636;9.516;2023-04-16T09:14:10;10.00;99.90
7762;DHT22;3925;48.636;9.516;2023-04-16T09:16:38;10.00;99.90
7762;DHT22;3925;48.636;9.516;2023-04-16T09:19:06;9.80;99.90
7762;DHT22;3925;48.636;9.516;2023-04-16T09:21:34;9.90;99.90
7762;DHT22;3925;48.636;9.516;2023-04-16T09:24:02;9.80;99.90
7762;DHT22;3925;48.636;9.516;2023-04-16T09:26:29;9.70;99.90
7762;DHT22;3925;48.636;9.516;2023-04-16T09:28:56;9.80;99.90
7762;DHT22;3925;48.636;9.516;2023-04-16T09:31:23;9.80;99.90
7762;DHT22;3925;48.636;9.516;2023-04-16T09:34:00;9.80;99.90
7762;DHT22;3925;48.636;9.516;2023-04-16T09:36:28;9.80;99.90
7762;DHT22;3925;48.636;9.516;2023-04-16T09:38:57;9.70;99.90
7762;DHT22;3925;48.636;9.516;2023-04-16T09:41:26;9.60;99.90
7762;DHT22;3925;48.636;9.516;2023-04-16T09:43:54;9.70;99.90
7762;DHT22;3925;48.636;9.516;2023-04-16T09:46:22;9.70;99.90
7762;DHT22;3925;48.636;9.516;2023-04-16T09:48:49;9.80;99.90
7762;DHT22;3925;48.636;9.516;2023-04-16T09:51:16;9.90;99.90
7762;DHT22;3925;48.636;9.516;2023-04-16T09:53:43;9.90;99.90
7762;DHT22;3925;48.636;9.516;2023-04-16T09:56:12;9.80;99.90
7762;DHT22;3925;48.636;9.516;2023-04-16T09:58:39;9.70;99.90
7762;DHT22;3925;48.636;9.516;2023-04-16T10:01:07;9.70;99.90
7762;DHT22;3925;48.636;9.516;2023-04-16T10:03:35;9.70;99.90
7762;DHT22;3925;48.636;9.516;2023-04-16T10:06:14;9.80;99.90
7762;DHT22;3925;48.636;9.516;2023-04-16T10:08:46;9.80;99.90
7762;DHT22;3925;48.636;9.516;2023-04-16T10:11:15;9.90;99.90
7762;DHT22;3925;48.636;9.516;2023-04-16T10:13:42;9.90;99.90
7762;DHT22;3925;48.636;9.516;2023-04-16T10:16:09;9.90;99.90
7762;DHT22;3925;48.636;9.516;2023-04-16T10:18:37;9.90;99.90
7762;DHT22;3925;48.636;9.516;2023-04-16T10:21:04;9.90;99.90
7762;DHT22;3925;48.636;9.516;2023-04-16T10:23:31;9.90;99.90
7762;DHT22;3925;48.636;9.516;2023-04-16T10:26:00;9.80;99.90
7762;DHT22;3925;48.636;9.516;2023-04-16T10:28:28;9.90;99.90
7762;DHT22;3925;48.636;9.516;2023-04-16T10:30:56;9.80;99.90
7762;DHT22;3925;48.636;9.516;2023-04-16T10:33:25;9.80;99.90
7762;DHT22;3925;48.636;9.516;2023-04-16T10:36:05;9.70;99.90
7762;DHT22;3925;48.636;9.516;2023-04-16T10:38:32;9.70;99.90
7762;DHT22;3925;48.636;9.516;2023-04-16T10:41:01;9.80;99.90
7762;DHT22;3925;48.636;9.516;2023-04-16T10:43:32;9.80;99.90
7762;DHT22;3925;48.636;9.516;2023-04-16T10:46:16;9.80;99.90
7762;DHT22;3925;48.636;9.516;2023-04-16T10:48:43;9.70;99.90
7762;DHT22;3925;48.636;9.516;2023-04-16T10:51:23;9.70;99.90
7762;DHT22;3925;48.636;9.516;2023-04-16T10:53:50;9.70;99.90
7762;DHT22;3925;48.636;9.516;2023-04-16T10:56:22;9.70;99.90
7762;DHT22;3925;48.636;9.516;2023-04-16T10:58:52;9.60;99.90
7762;DHT22;3925;48.636;9.516;2023-04-16T11:01:28;9.70;99.90
7762;DHT22;3925;48.636;9.516;2023-04-16T11:03:56;9.70;99.90
7762;DHT22;3925;48.636;9.516;2023-04-16T11:06:24;9.70;99.90
7762;DHT22;3925;48.636;9.516;2023-04-16T11:08:52;9.70;99.90
7762;DHT22;3925;48.636;9.516;2023-04-16T11:11:21;9.70;99.90
7762;DHT22;3925;48.636;9.516;2023-04-16T11:13:49;9.70;99.90
7762;DHT22;3925;48.636;9.516;2023-04-16T11:16:20;9.50;99.90
7762;DHT22;3925;48.636;9.516;2023-04-16T11:18:47;9.50;99.90
7762;DHT22;3925;48.636;9.516;2023-04-16T11:21:14;9.60;99.90
7762;DHT22;3925;48.636;9.516;2023-04-16T11:23:47;9.70;99.90
7762;DHT22;3925;48.636;9.516;2023-04-16T11:26:25;9.70;99.90
7762;DHT22;3925;48.636;9.516;2023-04-16T11:28:55;9.80;99.90
7762;DHT22;3925;48.636;9.516;2023-04-16T11:31:22;9.80;99.90
7762;DHT22;3925;48.636;9.516;2023-04-16T11:33:49;9.80;99.90
7762;DHT22;3925;48.636;9.516;2023-04-16T11:36:16;9.90;99.90
7762;DHT22;3925;48.636;9.516;2023-04-16T11:38:43;9.90;99.90
7762;DHT22;3925;48.636;9.516;2023-04-16T11:41:10;9.90;99.90
7762;DHT22;3925;48.636;9.516;2023-04-16T11:43:37;10.00;99.90
7762;DHT22;3925;48.636;9.516;2023-04-16T11:46:06;10.00;99.90
7762;DHT22;3925;48.636;9.516;2023-04-16T11:48:45;10.00;99.90
7762;DHT22;3925;48.636;9.516;2023-04-16T11:51:12;10.00;99.90
7762;DHT22;3925;48.636;9.516;2023-04-16T11:53:47;9.90;99.90
7762;DHT22;3925;48.636;9.516;2023-04-16T11:56:15;10.00;99.90
7762;DHT22;3925;48.636;9.516;2023-04-16T11:58:42;10.00;99.90
7762;DHT22;3925;48.636;9.516;2023-04-16T12:01:10;10.00;99.90
7762;DHT22;3925;48.636;9.516;2023-04-16T12:03:39;9.80;99.90
7762;DHT22;3925;48.636;9.516;2023-04-16T12:06:08;9.90;99.90
7762;DHT22;3925;48.636;9.516;2023-04-16T12:08:35;9.80;99.90
7762;DHT22;3925;48.636;9.516;2023-04-16T12:11:02;9.80;99.90
7762;DHT22;3925;48.636;9.516;2023-04-16T12:13:29;9.80;99.90
7762;DHT22;3925;48.636;9.516;2023-04-16T12:15:56;9.90;99.90
7762;DHT22;3925;48.636;9.516;2023-04-16T12:18:25;10.00;99.90
7762;DHT22;3925;48.636;9.516;2023-04-16T12:20:52;10.00;99.90
7762;DHT22;3925;48.636;9.516;2023-04-16T12:23:23;10.10;99.90
7762;DHT22;3925;48.636;9.516;2023-04-16T12:25:51;10.10;99.90
7762;DHT22;3925;48.636;9.516;2023-04-16T12:28:26;10.20;99.90
7762;DHT22;3925;48.636;9.516;2023-04-16T12:30:54;10.20;99.90
7762;DHT22;3925;48.636;9.516;2023-04-16T12:33:20;10.20;99.90
7762;DHT22;3925;48.636;9.516;2023-04-16T12:35:49;10.20;99.90
7762;DHT22;3925;48.636;9.516;2023-04-16T12:38:16;10.40;99.90
7762;DHT22;3925;48.636;9.516;2023-04-16T12:40:43;10.30;99.90
7762;DHT22;3925;48.636;9.516;2023-04-16T12:43:10;10.40;99.90
7762;DHT22;3925;48.636;9.516;2023-04-16T12:45:39;10.30;99.90
7762;DHT22;3925;48.636;9.516;2023-04-16T12:48:06;10.30;99.90
7762;DHT22;3925;48.636;9.516;2023-04-16T12:50:33;10.40;99.90
7762;DHT22;3925;48.636;9.516;2023-04-16T12:53:01;10.50;99.90
7762;DHT22;3925;48.636;9.516;2023-04-16T12:55:28;10.40;99.90
7762;DHT22;3925;48.636;9.516;2023-04-16T12:57:55;10.30;99.90
7762;DHT22;3925;48.636;9.516;2023-04-16T13:00:22;10.40;99.90
7762;DHT22;3925;48.636;9.516;2023-04-16T13:02:49;10.40;99.90
7762;DHT22;3925;48.636;9.516;2023-04-16T13:05:16;10.40;99.90
7762;DHT22;3925;48.636;9.516;2023-04-16T13:07:43;10.50;99.90
7762;DHT22;3925;48.636;9.516;2023-04-16T13:10:12;10.30;99.90
7762;DHT22;3925;48.636;9.516;2023-04-16T13:12:39;10.30;99.90
7762;DHT22;3925;48.636;9.516;2023-04-16T13:15:07;10.30;99.90
7762;DHT22;3925;48.636;9.516;2023-04-16T13:17:34;10.30;99.90
7762;DHT22;3925;48.636;9.516;2023-04-16T13:20:01;10.30;99.90
7762;DHT22;3925;48.636;9.516;2023-04-16T13:22:28;10.30;99.90
7762;DHT22;3925;48.636;9.516;2023-04-16T13:24:54;10.40;99.90
7762;DHT22;3925;48.636;9.516;2023-04-16T13:27:23;10.40;99.90
7762;DHT22;3925;48.636;9.516;2023-04-16T13:29:50;10.40;99.90
7762;DHT22;3925;48.636;9.516;2023-04-16T13:32:16;10.40;99.90
7762;DHT22;3925;48.636;9.516;2023-04-16T13:34:43;10.50;99.90
7762;DHT22;3925;48.636;9.516;2023-04-16T13:37:10;10.30;99.90
7762;DHT22;3925;48.636;9.516;2023-04-16T13:39:37;10.40;99.90
7762;DHT22;3925;48.636;9.516;2023-04-16T13:42:04;10.30;99.90
7762;DHT22;3925;48.636;9.516;2023-04-16T13:44:32;10.30;99.90
7762;DHT22;3925;48.636;9.516;2023-04-16T13:46:59;10.40;99.90
7762;DHT22;3925;48.636;9.516;2023-04-16T13:49:26;10.50;99.90
7762;DHT22;3925;48.636;9.516;2023-04-16T13:51:53;10.60;99.90
7762;DHT22;3925;48.636;9.516;2023-04-16T13:54:20;10.50;99.90
7762;DHT22;3925;48.636;9.516;2023-04-16T13:56:48;10.60;99.90
7762;DHT22;3925;48.636;9.516;2023-04-16T13:59:15;10.50;99.90
7762;DHT22;3925;48.636;9.516;2023-04-16T14:01:44;10.60;99.90
7762;DHT22;3925;48.636;9.516;2023-04-16T14:04:10;10.60;99.90
7762;DHT22;3925;48.636;9.516;2023-04-16T14:06:37;10.60;99.90
7762;DHT22;3925;48.636;9.516;2023-04-16T14:09:04;10.60;99.90
7762;DHT22;3925;48.636;9.516;2023-04-16T14:11:31;10.50;99.90
7762;DHT22;3925;48.636;9.516;2023-04-16T14:13:58;10.40;99.90
7762;DHT22;3925;48.636;9.516;2023-04-16T14:16:25;10.50;99.90
7762;DHT22;3925;48.636;9.516;2023-04-16T14:18:53;10.40;99.90
7762;DHT22;3925;48.636;9.516;2023-04-16T14:21:21;10.40;99.90
7762;DHT22;3925;48.636;9.516;2023-04-16T14:23:48;10.40;99.90
7762;DHT22;3925;48.636;9.516;2023-04-16T14:26:15;10.50;99.90
7762;DHT22;3925;48.636;9.516;2023-04-16T14:28:43;10.50;99.90
7762;DHT22;3925;48.636;9.516;2023-04-16T14:31:09;10.50;99.90
7762;DHT22;3925;48.636;9.516;2023-04-16T14:33:36;10.40;99.90
7762;DHT22;3925;48.636;9.516;2023-04-16T14:36:05;10.40;99.90
7762;DHT22;3925;48.636;9.516;2023-04-16T14:38:32;10.50;99.90
7762;DHT22;3925;48.636;9.516;2023-04-16T14:40:59;10.40;99.90
7762;DHT22;3925;48.636;9.516;2023-04-16T14:43:26;10.30;99.90
7762;DHT22;3925;48.636;9.516;2023-04-16T14:45:53;10.30;99.90
7762;DHT22;3925;48.636;9.516;2023-04-16T14:48:21;10.20;99.90
7762;DHT22;3925;48.636;9.516;2023-04-16T14:50:48;10.20;99.90
7762;DHT22;3925;48.636;9.516;2023-04-16T14:53:18;10.20;99.90
7762;DHT22;3925;48.636;9.516;2023-04-16T14:55:44;10.30;99.90
7762;DHT22;3925;48.636;9.516;2023-04-16T14:58:12;10.30;99.90
7762;DHT22;3925;48.636;9.516;2023-04-16T15:00:38;10.30;99.90
7762;DHT22;3925;48.636;9.516;2023-04-16T15:03:05;10.30;99.90
7762;DHT22;3925;48.636;9.516;2023-04-16T15:05:34;10.10;99.90
7762;DHT22;3925;48.636;9.516;2023-04-16T15:08:00;10.10;99.90
7762;DHT22;3925;48.636;9.516;2023-04-16T15:10:29;10.10;99.90
7762;DHT22;3925;48.636;9.516;2023-04-16T15:12:57;10.20;99.90
7762;DHT22;3925;48.636;9.516;2023-04-16T15:15:24;10.10;99.90
7762;DHT22;3925;48.636;9.516;2023-04-16T15:17:51;10.20;99.90
7762;DHT22;3925;48.636;9.516;2023-04-16T15:20:18;10.20;99.90
7762;DHT22;3925;48.636;9.516;2023-04-16T15:22:45;10.20;99.90
7762;DHT22;3925;48.636;9.516;2023-04-16T15:25:12;10.20;99.90
7762;DHT22;3925;48.636;9.516;2023-04-16T15:27:41;10.10;99.90
7762;DHT22;3925;48.636;9.516;2023-04-16T15:30:08;10.10;99.90
7762;DHT22;3925;48.636;9.516;2023-04-16T15:32:37;10.10;99.90
7762;DHT22;3925;48.636;9.516;2023-04-16T15:35:05;10.20;99.90
7762;DHT22;3925;48.636;9.516;2023-04-16T15:37:32;10.10;99.90
7762;DHT22;3925;48.636;9.516;2023-04-16T15:39:59;10.10;99.90
7762;DHT22;3925;48.636;9.516;2023-04-16T15:42:26;10.10;99.90
7762;DHT22;3925;48.636;9.516;2023-04-16T15:44:54;10.10;99.90
7762;DHT22;3925;48.636;9.516;2023-04-16T15:47:21;10.20;99.90
7762;DHT22;3925;48.636;9.516;2023-04-16T15:49:48;10.20;99.90
7762;DHT22;3925;48.636;9.516;2023-04-16T15:52:15;10.10;99.90
7762;DHT22;3925;48.636;9.516;2023-04-16T15:54:42;10.10;99.90
7762;DHT22;3925;48.636;9.516;2023-04-16T15:57:09;10.10;99.90
7762;DHT22;3925;48.636;9.516;2023-04-16T15:59:36;10.10;99.90
7762;DHT22;3925;48.636;9.516;2023-04-16T16:02:04;10.10;99.90
7762;DHT22;3925;48.636;9.516;2023-04-16T16:04:31;10.10;99.90
7762;DHT22;3925;48.636;9.516;2023-04-16T16:06:58;10.10;99.90
7762;DHT22;3925;48.636;9.516;2023-04-16T16:09:27;10.10;99.90
7762;DHT22;3925;48.636;9.516;2023-04-16T16:11:54;10.10;99.90
7762;DHT22;3925;48.636;9.516;2023-04-16T16:14:22;10.10;99.90
7762;DHT22;3925;48.636;9.516;2023-04-16T16:16:50;10.10;99.90